Time;durP1;ratioP1;P1;durP2;ratioP2;P2;SDS_P1;SDS_P2;PMS_P1;PMS_P2;Temp;Humidity;BMP_temperature;BMP_pressure;BME280_temperature;BME280_humidity;BME280_pressure;Samples;Min_cycle;Max_cycle;Signal;HPM_P1;HPM_P2
2023/04/27 00:02:12;;;;;;;11.20;7.50;;;;;;;10.76;81.30;149997.75;5110894;28;20023;-62
2023/04/27 00:04:37;;;;;;;13.52;7.88;;;;;;;10.72;81.40;149987.47;5120989;28;20043;-60
2023/04/27 00:07:03;;;;;;;13.45;7.75;;;;;;;10.65;80.99;149970.78;5103225;28;20198;-61
2023/04/27 00:09:28;;;;;;;9.73;6.82;;;;;;;10.62;81.75;149961.84;5121772;28;20030;-61
2023/04/27 00:11:54;;;;;;;12.77;8.05;;;;;;;10.59;81.65;149954.09;5109315;28;20048;-61
2023/04/27 00:14:20;;;;;;;9.60;7.40;;;;;;;10.62;81.11;149961.84;5111773;28;20020;-61
2023/04/27 00:16:46;;;;;;;11.80;7.30;;;;;;;10.65;81.29;149969.53;5123722;28;20031;-61
2023/04/27 00:19:12;;;;;;;9.70;6.82;;;;;;;10.63;81.20;149964.38;5123559;28;20350;-62
2023/04/27 00:21:38;;;;;;;9.50;7.10;;;;;;;10.52;81.47;149938.72;5104097;28;20035;-60
2023/04/27 00:24:04;;;;;;;10.32;7.13;;;;;;;10.48;81.22;149928.47;5105545;28;20028;-61
2023/04/27 00:26:30;;;;;;;10.55;7.57;;;;;;;10.51;80.96;149934.88;5112886;28;20028;-61
2023/04/27 00:28:56;;;;;;;9.00;6.82;;;;;;;10.53;81.34;149940.00;5118193;28;20050;-61
2023/04/27 00:31:21;;;;;;;7.43;6.50;;;;;;;10.53;81.48;149941.31;5106775;28;20031;-60
2023/04/27 00:33:47;;;;;;;10.73;7.32;;;;;;;10.41;81.90;149909.25;5123636;28;20050;-62
2023/04/27 00:36:12;;;;;;;11.50;6.90;;;;;;;10.43;81.61;149915.66;5124000;28;20046;-60
2023/04/27 00:38:38;;;;;;;8.82;7.10;;;;;;;10.47;82.10;149924.63;5116108;28;20028;-59
2023/04/27 00:41:06;;;;;;;9.70;6.90;;;;;;;10.47;82.07;149925.88;5113023;28;20039;-60
2023/04/27 00:43:32;;;;;;;9.75;6.47;;;;;;;10.47;81.77;149925.88;5125721;28;20031;-60
2023/04/27 00:45:58;;;;;;;9.77;6.93;;;;;;;10.45;81.31;149919.50;5088614;28;20024;-60
2023/04/27 00:48:25;;;;;;;12.40;6.97;;;;;;;10.45;81.52;149919.50;5124062;28;20032;-60
2023/04/27 00:50:51;;;;;;;11.77;7.15;;;;;;;10.42;81.64;149913.09;5113881;28;20027;-59
2023/04/27 00:53:17;;;;;;;12.40;6.95;;;;;;;10.40;81.73;149906.66;5105174;28;20058;-60
2023/04/27 00:55:43;;;;;;;12.73;7.68;;;;;;;10.46;81.39;149922.03;5109411;28;20085;-61
2023/04/27 00:58:08;;;;;;;11.05;6.75;;;;;;;10.48;81.76;149928.47;5126620;28;20031;-61
2023/04/27 01:00:35;;;;;;;14.75;7.78;;;;;;;10.46;81.85;149923.34;5126771;28;20092;-61
2023/04/27 01:03:03;;;;;;;7.97;6.90;;;;;;;10.44;81.73;149918.19;5112132;28;20044;-62
2023/04/27 01:05:29;;;;;;;10.20;6.75;;;;;;;10.41;82.58;149910.50;5115820;28;20028;-61
2023/04/27 01:07:55;;;;;;;13.82;8.05;;;;;;;10.42;82.91;149913.09;5126482;28;20038;-60
2023/04/27 01:10:20;;;;;;;9.00;7.15;;;;;;;10.45;81.97;149920.78;5126622;28;20027;-61
2023/04/27 01:12:46;;;;;;;11.45;6.60;;;;;;;10.41;81.94;149910.50;5105885;28;20085;-61
2023/04/27 01:15:12;;;;;;;14.82;6.93;;;;;;;10.43;81.91;149914.34;5120828;28;20031;-61
2023/04/27 01:17:37;;;;;;;12.10;7.50;;;;;;;10.32;82.50;149887.41;5115810;28;20065;-61
2023/04/27 01:20:08;;;;;;;11.40;7.28;;;;;;;10.29;82.81;149879.66;5111602;28;20023;-63
2023/04/27 01:22:33;;;;;;;12.82;7.78;;;;;;;10.29;83.06;149881.00;5124795;28;20061;-61
2023/04/27 01:24:59;;;;;;;15.80;7.72;;;;;;;10.31;82.93;149884.81;5106007;28;20311;-61
2023/04/27 01:27:25;;;;;;;13.02;7.38;;;;;;;10.27;83.48;149875.84;5105915;28;20220;-62
2023/04/27 01:29:50;;;;;;;13.25;7.72;;;;;;;10.29;82.98;149879.66;5105732;28;20065;-60
2023/04/27 01:32:16;;;;;;;10.45;7.00;;;;;;;10.29;82.73;149879.66;5117384;28;20351;-61
2023/04/27 01:34:41;;;;;;;13.38;7.07;;;;;;;10.29;83.00;149879.66;5126418;28;20027;-61
2023/04/27 01:37:07;;;;;;;15.48;8.38;;;;;;;10.26;82.14;149872.00;5126235;28;20027;-60
2023/04/27 01:39:33;;;;;;;14.98;7.72;;;;;;;10.21;82.53;149859.19;5107866;28;20020;-61
2023/04/27 01:41:58;;;;;;;13.27;8.63;;;;;;;10.16;82.33;149848.94;5119007;28;20496;-61
2023/04/27 01:44:24;;;;;;;16.20;8.15;;;;;;;10.16;83.18;149848.94;5117800;28;20091;-61
2023/04/27 01:46:49;;;;;;;14.15;7.68;;;;;;;10.09;82.91;149831.00;5109243;28;20243;-61
2023/04/27 01:49:15;;;;;;;13.82;7.65;;;;;;;10.06;83.70;149822.00;5126042;28;20027;-62
2023/04/27 01:51:41;;;;;;;15.98;8.13;;;;;;;10.06;83.61;149823.31;5106593;28;20028;-61
2023/04/27 01:54:07;;;;;;;13.65;8.38;;;;;;;10.07;83.22;149825.84;5101426;28;20089;-64
2023/04/27 01:56:32;;;;;;;11.07;7.60;;;;;;;10.08;82.78;149827.16;5121240;28;20035;-62
2023/04/27 01:58:58;;;;;;;9.35;7.78;;;;;;;10.03;83.62;149815.56;5120698;28;20027;-62
2023/04/27 02:01:23;;;;;;;13.35;7.82;;;;;;;10.00;84.12;149807.88;5105128;28;20043;-60
2023/04/27 02:03:49;;;;;;;15.70;8.15;;;;;;;10.03;83.29;149815.56;5105078;28;20070;-61
2023/04/27 02:06:15;;;;;;;13.20;8.32;;;;;;;9.99;83.37;149805.31;5120290;28;20038;-61
2023/04/27 02:08:40;;;;;;;13.38;8.27;;;;;;;10.00;83.83;149807.88;5115023;28;20088;-61
2023/04/27 02:11:06;;;;;;;13.90;8.40;;;;;;;9.94;83.93;149793.78;5110494;28;20030;-61
2023/04/27 02:13:31;;;;;;;12.57;7.45;;;;;;;9.94;83.27;149792.53;5125472;28;20040;-61
2023/04/27 02:15:57;;;;;;;16.23;8.18;;;;;;;9.97;84.05;149800.22;5125472;28;20047;-62
2023/04/27 02:18:23;;;;;;;11.02;8.45;;;;;;;9.96;84.52;149798.94;5108025;28;20312;-62
2023/04/27 02:20:49;;;;;;;15.38;8.15;;;;;;;9.98;83.91;149804.06;5105043;28;20023;-60
2023/04/27 02:23:15;;;;;;;17.42;7.85;;;;;;;9.98;83.76;149802.78;5111754;28;20091;-60
2023/04/27 02:25:45;;;;;;;14.82;8.32;;;;;;;9.89;84.57;149779.69;5123242;28;20023;-62
2023/04/27 02:28:11;;;;;;;13.55;8.15;;;;;;;9.99;84.68;149805.31;5104832;28;20122;-62
2023/04/27 02:30:36;;;;;;;12.55;7.65;;;;;;;9.97;83.81;149800.22;5101544;28;20035;-61
2023/04/27 02:33:02;;;;;;;16.80;8.20;;;;;;;10.02;84.14;149813.03;5122194;28;20031;-62
2023/04/27 02:35:28;;;;;;;11.05;8.30;;;;;;;9.98;84.02;149804.06;5124143;28;20035;-61
2023/04/27 02:37:53;;;;;;;12.93;8.40;;;;;;;9.95;84.57;149796.38;5124851;28;20031;-61
2023/04/27 02:40:19;;;;;;;13.10;8.65;;;;;;;10.04;83.94;149816.88;5124834;28;20185;-61
2023/04/27 02:42:44;;;;;;;16.52;9.18;;;;;;;10.06;84.41;149823.31;5105487;28;20043;-62
2023/04/27 02:45:10;;;;;;;14.82;8.90;;;;;;;9.91;84.11;149786.09;5118465;28;20336;-61
2023/04/27 02:47:36;;;;;;;18.50;9.45;;;;;;;9.92;84.66;149788.69;5115371;28;20087;-62
2023/04/27 02:50:02;;;;;;;15.07;8.05;;;;;;;10.00;84.35;149809.22;5108897;28;20027;-62
2023/04/27 02:52:28;;;;;;;13.40;8.50;;;;;;;10.06;84.95;149822.00;5124959;28;20084;-62
2023/04/27 02:54:54;;;;;;;16.33;8.27;;;;;;;10.21;83.92;149860.47;5103921;28;20039;-60
2023/04/27 02:57:20;;;;;;;15.35;8.18;;;;;;;10.25;83.62;149869.47;5119854;28;20099;-61
2023/04/27 02:59:45;;;;;;;17.40;9.07;;;;;;;10.56;82.72;149947.72;5123998;28;20333;-60
2023/04/27 03:02:11;;;;;;;13.40;8.35;;;;;;;10.73;82.78;149988.75;5118390;28;20059;-62
2023/04/27 03:04:37;;;;;;;13.00;7.90;;;;;;;10.94;82.10;150041.34;5105187;28;20032;-62
2023/04/27 03:07:03;;;;;;;13.68;9.13;;;;;;;11.11;81.33;150083.69;5124355;28;20280;-61
2023/04/27 03:09:28;;;;;;;16.80;11.32;;;;;;;11.03;80.87;150065.72;5103063;28;20072;-61
2023/04/27 03:11:54;;;;;;;20.80;9.63;;;;;;;10.87;81.79;150025.97;5103933;28;20075;-61
2023/04/27 03:14:20;;;;;;;16.98;9.73;;;;;;;10.94;81.78;150041.34;5110745;28;20258;-61
2023/04/27 03:16:45;;;;;;;16.85;9.35;;;;;;;10.98;82.12;150051.59;5124267;28;20028;-60
2023/04/27 03:19:11;;;;;;;14.18;8.93;;;;;;;11.08;81.81;150076.00;5124032;28;20232;-60
2023/04/27 03:21:36;;;;;;;15.35;8.68;;;;;;;11.10;81.83;150082.41;5106374;28;20053;-61
2023/04/27 03:24:02;;;;;;;18.42;10.30;;;;;;;11.23;81.85;150114.47;5116308;28;20205;-64
2023/04/27 03:26:28;;;;;;;24.38;9.90;;;;;;;11.25;82.02;150118.31;5116028;28;20032;-63
2023/04/27 03:28:53;;;;;;;14.55;8.68;;;;;;;11.44;81.09;150167.06;5106453;28;20027;-61
2023/04/27 03:31:19;;;;;;;18.10;9.70;;;;;;;11.51;80.85;150183.75;5124166;28;20038;-63
2023/04/27 03:33:45;;;;;;;18.73;9.80;;;;;;;11.60;80.81;150205.56;5123948;28;20299;-62
2023/04/27 03:36:10;;;;;;;23.13;10.68;;;;;;;11.64;80.50;150215.84;5123806;28;20031;-62
2023/04/27 03:38:36;;;;;;;27.17;12.77;;;;;;;11.78;80.89;150251.78;5114833;28;20051;-63
2023/04/27 03:41:02;;;;;;;30.42;11.27;;;;;;;11.86;80.44;150271.06;5107007;28;20027;-62
2023/04/27 03:43:27;;;;;;;31.35;12.50;;;;;;;11.97;80.03;150299.34;5123651;28;20024;-61
2023/04/27 03:45:53;;;;;;;28.80;11.77;;;;;;;12.18;79.45;150350.69;5104067;28;20024;-61
2023/04/27 03:48:19;;;;;;;20.77;11.10;;;;;;;12.51;78.90;150434.19;5100439;28;20239;-61
2023/04/27 03:50:46;;;;;;;27.88;12.18;;;;;;;12.97;76.81;150548.50;5113975;28;20027;-61
2023/04/27 03:53:12;;;;;;;27.38;10.98;;;;;;;13.30;76.26;150632.00;5106777;28;20285;-60
2023/04/27 03:55:39;;;;;;;28.92;12.05;;;;;;;13.31;75.59;150633.31;5123078;28;20036;-60
2023/04/27 03:58:05;;;;;;;24.48;9.88;;;;;;;13.32;75.77;150634.56;5103403;28;20035;-62
2023/04/27 04:00:31;;;;;;;17.95;10.13;;;;;;;13.15;75.87;150593.44;5119549;28;20039;-61
2023/04/27 04:02:56;;;;;;;21.35;10.48;;;;;;;13.03;76.55;150563.91;5111761;28;20028;-60
2023/04/27 04:05:22;;;;;;;18.75;10.75;;;;;;;12.96;77.56;150545.91;5110060;28;20028;-61
2023/04/27 04:07:48;;;;;;;23.27;11.40;;;;;;;13.02;76.86;150560.03;5121691;28;20086;-62
2023/04/27 04:10:13;;;;;;;20.63;11.10;;;;;;;13.13;75.34;150588.31;5102969;28;20050;-62
2023/04/27 04:12:39;;;;;;;15.38;11.02;;;;;;;13.24;75.57;150616.59;5123936;28;20028;-61
2023/04/27 04:15:06;;;;;;;15.98;11.88;;;;;;;13.28;74.19;150626.88;5127618;28;20036;-62
2023/04/27 04:17:32;;;;;;;19.50;11.80;;;;;;;13.30;74.34;150632.00;5119790;28;20043;-62
2023/04/27 04:19:59;;;;;;;18.13;11.32;;;;;;;13.28;75.81;150626.88;5110169;28;20024;-60
2023/04/27 04:22:25;;;;;;;20.88;13.70;;;;;;;13.38;75.37;150650.03;5128144;28;20034;-61
2023/04/27 04:24:50;;;;;;;14.18;10.57;;;;;;;13.51;75.24;150683.47;5108319;28;20024;-61
2023/04/27 04:27:16;;;;;;;19.67;10.82;;;;;;;13.56;74.32;150696.31;5121098;28;20024;-61
2023/04/27 04:29:42;;;;;;;14.18;10.65;;;;;;;13.68;73.46;150724.59;5099691;28;20052;-61
2023/04/27 04:32:08;;;;;;;23.15;11.38;;;;;;;13.78;72.83;150750.28;5098707;28;20062;-61
2023/04/27 04:34:35;;;;;;;15.15;10.63;;;;;;;13.84;70.76;150765.75;5106890;28;20040;-61
2023/04/27 04:37:01;;;;;;;22.63;10.57;;;;;;;13.91;70.50;150783.72;5106672;28;20457;-61
2023/04/27 04:39:31;;;;;;;23.42;11.00;;;;;;;14.03;71.53;150812.03;5106716;28;20055;-61
2023/04/27 04:41:56;;;;;;;18.17;10.88;;;;;;;14.06;70.56;150819.72;5108566;28;20058;-61
2023/04/27 04:44:22;;;;;;;23.27;12.30;;;;;;;14.18;71.10;150850.59;5106582;28;20024;-62
2023/04/27 04:46:47;;;;;;;17.20;10.63;;;;;;;14.23;68.88;150863.44;5108159;28;20144;-62
2023/04/27 04:49:13;;;;;;;17.88;12.52;;;;;;;14.31;69.69;150884.03;5126799;28;20035;-63
2023/04/27 04:51:43;;;;;;;12.45;9.85;;;;;;;14.39;67.14;150902.03;5109526;28;20256;-62
2023/04/27 04:54:08;;;;;;;23.00;10.82;;;;;;;14.53;67.87;150938.03;5114446;28;20038;-63
2023/04/27 04:56:34;;;;;;;11.63;8.60;;;;;;;14.77;63.79;150998.53;5114261;28;20040;-63
2023/04/27 04:59:00;;;;;;;15.32;8.55;;;;;;;15.08;62.74;151075.75;5123281;28;20028;-64
2023/04/27 05:01:26;;;;;;;12.13;8.00;;;;;;;15.52;61.30;151186.44;5088358;28;20092;-62
2023/04/27 05:03:52;;;;;;;11.43;6.60;;;;;;;15.90;60.35;151280.44;5124675;28;20087;-63
2023/04/27 05:06:17;;;;;;;15.32;7.75;;;;;;;16.21;60.06;151358.97;5112357;28;20103;-63
2023/04/27 05:08:43;;;;;;;14.75;8.30;;;;;;;16.62;60.18;151460.75;5106063;28;20024;-63
2023/04/27 05:11:08;;;;;;;9.77;6.82;;;;;;;17.16;58.46;151594.78;5110139;28;20027;-63
2023/04/27 05:13:34;;;;;;;17.42;8.07;;;;;;;17.52;56.13;151686.31;5126472;28;20031;-63
2023/04/27 05:16:04;;;;;;;13.27;7.60;;;;;;;18.19;53.80;151853.97;5125667;28;20034;-63
2023/04/27 05:18:29;;;;;;;13.32;7.00;;;;;;;18.16;52.66;151844.97;5125564;28;20230;-62
2023/04/27 05:20:55;;;;;;;9.38;7.05;;;;;;;18.13;53.58;151838.50;5115387;28;20039;-62
2023/04/27 05:23:20;;;;;;;13.88;6.82;;;;;;;17.93;55.26;151788.22;5105960;28;20028;-63
2023/04/27 05:25:46;;;;;;;13.60;6.82;;;;;;;17.66;53.06;151721.13;5106957;28;20062;-63
2023/04/27 05:28:12;;;;;;;9.18;5.38;;;;;;;17.92;52.53;151785.63;5126244;28;20028;-62
2023/04/27 05:30:37;;;;;;;8.10;4.90;;;;;;;18.44;52.04;151917.16;5109494;28;20024;-60
2023/04/27 05:33:04;;;;;;;8.20;4.53;;;;;;;18.25;48.65;151868.16;5123399;28;20328;-61
2023/04/27 05:35:30;;;;;;;6.75;4.43;;;;;;;18.30;47.97;151881.06;5126214;28;20036;-60
2023/04/27 05:37:56;;;;;;;9.23;4.57;;;;;;;18.09;48.33;151828.19;5125890;28;20034;-61
2023/04/27 05:40:22;;;;;;;5.13;4.60;;;;;;;18.44;49.24;151915.84;5126075;28;20023;-61
2023/04/27 05:42:48;;;;;;;8.95;4.95;;;;;;;18.46;49.22;151922.31;5121490;28;20024;-61
2023/04/27 05:45:14;;;;;;;14.48;5.50;;;;;;;18.69;48.76;151977.81;5118684;28;20064;-61
2023/04/27 05:47:40;;;;;;;8.82;4.60;;;;;;;18.92;50.16;152035.91;5117698;28;20031;-61
2023/04/27 05:50:07;;;;;;;12.07;5.63;;;;;;;18.75;48.29;151994.53;5109047;28;20152;-62
2023/04/27 05:52:32;;;;;;;11.57;6.32;;;;;;;18.54;47.38;151941.69;5107996;28;20039;-62
2023/04/27 05:54:58;;;;;;;15.93;7.05;;;;;;;18.40;47.67;151905.56;5106148;28;20040;-62
2023/04/27 05:57:24;;;;;;;13.43;7.35;;;;;;;18.31;47.92;151882.34;5119730;28;20032;-62
2023/04/27 05:59:50;;;;;;;11.10;6.05;;;;;;;18.95;48.38;152043.63;5115963;28;20028;-62
2023/04/27 06:02:17;;;;;;;10.13;6.78;;;;;;;18.99;47.75;152052.69;5109648;28;20034;-61
2023/04/27 06:04:42;;;;;;;14.48;7.15;;;;;;;18.89;47.94;152029.44;5125296;28;20284;-61
2023/04/27 06:07:10;;;;;;;15.50;7.43;;;;;;;18.99;47.88;152052.69;5105091;28;20252;-60
2023/04/27 06:09:35;;;;;;;10.32;6.97;;;;;;;19.13;48.39;152088.81;5120898;28;20022;-62
2023/04/27 06:12:03;;;;;;;9.93;7.35;;;;;;;19.08;47.56;152077.22;5114406;28;20055;-64
2023/04/27 06:14:29;;;;;;;13.55;7.63;;;;;;;19.21;49.17;152109.47;5111463;28;20058;-61
2023/04/27 06:16:55;;;;;;;15.13;8.77;;;;;;;19.13;48.04;152090.09;5124817;28;20019;-62
2023/04/27 06:19:20;;;;;;;15.57;8.43;;;;;;;19.26;49.76;152122.34;5125271;28;20282;-63
2023/04/27 06:21:46;;;;;;;14.07;7.60;;;;;;;19.24;47.69;152115.88;5107783;28;20020;-64
2023/04/27 06:24:12;;;;;;;8.45;5.93;;;;;;;19.01;45.30;152059.16;5104444;28;20054;-63
2023/04/27 06:26:37;;;;;;;15.77;7.82;;;;;;;19.16;46.72;152095.28;5112383;28;20023;-65
2023/04/27 06:29:03;;;;;;;10.63;6.65;;;;;;;19.40;46.71;152155.94;5122055;28;20047;-63
2023/04/27 06:31:29;;;;;;;15.25;6.60;;;;;;;19.62;47.90;152211.41;5103094;28;20015;-63
2023/04/27 06:33:55;;;;;;;11.05;7.38;;;;;;;19.63;45.83;152214.00;5124004;28;20038;-65
2023/04/27 06:36:21;;;;;;;17.00;9.30;;;;;;;19.41;45.74;152159.78;5125019;28;20023;-63
2023/04/27 06:38:46;;;;;;;15.55;8.55;;;;;;;19.55;46.68;152193.34;5115678;28;20027;-64
2023/04/27 06:41:12;;;;;;;12.98;8.05;;;;;;;19.90;47.15;152281.19;5108093;28;20027;-64
2023/04/27 06:43:37;;;;;;;15.88;7.03;;;;;;;20.17;48.08;152349.63;5124721;28;20076;-65
2023/04/27 06:46:04;;;;;;;10.85;7.18;;;;;;;20.28;45.52;152378.03;5105049;28;20027;-65
2023/04/27 06:48:30;;;;;;;15.80;7.97;;;;;;;20.30;45.86;152381.91;5118930;28;20091;-65
2023/04/27 06:50:55;;;;;;;17.55;8.45;;;;;;;20.27;46.29;152375.44;5102834;28;20020;-64
2023/04/27 06:53:21;;;;;;;16.48;9.07;;;;;;;20.21;44.81;152358.63;5116700;28;20063;-66
2023/04/27 06:55:47;;;;;;;12.05;8.35;;;;;;;20.23;45.79;152365.09;5105753;28;20023;-64
2023/04/27 06:58:12;;;;;;;12.30;7.75;;;;;;;20.07;44.23;152323.81;5109614;28;20084;-64
2023/04/27 07:00:38;;;;;;;17.95;8.38;;;;;;;20.27;44.06;152374.16;5113553;28;20031;-64
2023/04/27 07:03:03;;;;;;;13.57;7.22;;;;;;;20.14;44.88;152343.16;5121988;28;20083;-64
2023/04/27 07:05:29;;;;;;;11.60;6.78;;;;;;;20.41;44.21;152410.31;5103237;28;20085;-64
2023/04/27 07:07:55;;;;;;;13.05;6.18;;;;;;;20.39;41.98;152405.13;5123672;28;20046;-64
2023/04/27 07:10:20;;;;;;;13.85;7.38;;;;;;;20.76;42.63;152498.19;5123495;28;20072;-64
2023/04/27 07:12:46;;;;;;;11.73;7.10;;;;;;;21.09;42.41;152580.91;5116970;28;20217;-66
2023/04/27 07:15:12;;;;;;;14.82;7.70;;;;;;;21.31;41.87;152636.44;5119045;28;20031;-65
2023/04/27 07:17:37;;;;;;;11.15;6.13;;;;;;;21.46;40.41;152672.63;5123250;28;20069;-65
2023/04/27 07:20:05;;;;;;;7.13;5.03;;;;;;;21.26;38.39;152622.22;5120820;28;20043;-64
2023/04/27 07:22:31;;;;;;;9.15;4.32;;;;;;;21.24;39.81;152617.09;5114985;28;20069;-65
2023/04/27 07:24:57;;;;;;;7.25;4.18;;;;;;;21.11;39.06;152586.06;5123451;28;20142;-65
2023/04/27 07:27:23;;;;;;;8.27;4.50;;;;;;;21.43;40.07;152666.16;5109972;28;20034;-65
2023/04/27 07:29:49;;;;;;;7.38;3.83;;;;;;;21.34;39.09;152644.19;5112050;28;20251;-66
2023/04/27 07:32:14;;;;;;;9.18;3.90;;;;;;;21.21;38.86;152611.88;5101570;28;20032;-65
2023/04/27 07:34:40;;;;;;;11.45;4.45;;;;;;;21.13;40.23;152589.91;5111613;28;20110;-65
2023/04/27 07:37:06;;;;;;;7.53;4.75;;;;;;;20.85;39.47;152521.47;5123224;28;20344;-66
2023/04/27 07:39:32;;;;;;;8.13;3.90;;;;;;;20.80;40.08;152508.50;5122969;28;20027;-68
2023/04/27 07:41:58;;;;;;;7.68;4.45;;;;;;;20.90;40.96;152531.78;5112910;28;20083;-66
2023/04/27 07:44:24;;;;;;;11.57;4.55;;;;;;;20.85;40.20;152520.19;5112579;28;20034;-65
2023/04/27 07:46:52;;;;;;;9.63;4.82;;;;;;;20.35;40.77;152396.09;5122547;28;20315;-65
2023/04/27 07:49:19;;;;;;;9.93;4.70;;;;;;;20.50;41.22;152432.28;5102993;28;20040;-65
2023/04/27 07:51:45;;;;;;;7.68;4.57;;;;;;;20.60;41.05;152456.81;5105206;28;20023;-66
2023/04/27 07:54:11;;;;;;;5.90;4.57;;;;;;;20.24;40.84;152366.41;5114684;28;20093;-64
2023/04/27 07:56:39;;;;;;;9.93;5.13;;;;;;;20.23;40.45;152363.81;5123108;28;20027;-65
2023/04/27 07:59:05;;;;;;;9.63;5.75;;;;;;;19.98;40.82;152303.13;5120743;28;20030;-66
2023/04/27 08:01:30;;;;;;;12.93;4.90;;;;;;;20.24;41.89;152367.69;5103190;28;20032;-66
2023/04/27 08:03:56;;;;;;;6.75;4.95;;;;;;;20.40;41.39;152406.44;5120050;28;20088;-65
2023/04/27 08:06:22;;;;;;;10.40;4.60;;;;;;;20.26;40.18;152371.56;5122891;28;20031;-65
2023/04/27 08:08:47;;;;;;;7.00;3.97;;;;;;;19.84;39.54;152267.00;5117368;28;20032;-67
2023/04/27 08:11:13;;;;;;;10.70;4.43;;;;;;;20.09;41.24;152330.22;5118689;28;20055;-64
2023/04/27 08:13:39;;;;;;;8.02;4.30;;;;;;;20.25;41.55;152370.28;5106517;28;20031;-64
2023/04/27 08:16:05;;;;;;;8.43;4.70;;;;;;;20.38;41.93;152401.25;5119319;28;20016;-65
2023/04/27 08:18:30;;;;;;;7.82;4.07;;;;;;;20.12;39.21;152338.00;5119289;28;20084;-66
2023/04/27 08:20:56;;;;;;;7.65;4.13;;;;;;;20.22;38.89;152362.50;5112491;28;20249;-66
2023/04/27 08:23:21;;;;;;;11.32;4.30;;;;;;;20.11;39.12;152335.41;5101172;28;20051;-66
2023/04/27 08:25:47;;;;;;;5.75;3.85;;;;;;;20.24;38.77;152367.69;5103029;28;20205;-65
2023/04/27 08:28:14;;;;;;;6.75;4.63;;;;;;;20.27;39.45;152374.16;5122410;28;20032;-64
2023/04/27 08:30:42;;;;;;;10.88;4.93;;;;;;;20.33;41.22;152389.63;5121197;28;20011;-64
2023/04/27 08:33:08;;;;;;;8.05;5.00;;;;;;;19.82;40.36;152263.13;5122178;28;20027;-63
2023/04/27 08:35:34;;;;;;;11.40;5.10;;;;;;;19.87;40.61;152273.44;5122280;28;20073;-66
2023/04/27 08:38:00;;;;;;;6.63;5.00;;;;;;;20.30;41.48;152381.91;5121654;28;20031;-65
2023/04/27 08:40:25;;;;;;;6.63;4.40;;;;;;;20.72;42.45;152486.56;5114942;28;20268;-65
2023/04/27 08:42:59;;;;;;;8.77;4.60;;;;;;;21.06;41.01;152573.09;5121820;28;20030;-66
2023/04/27 08:45:27;;;;;;;7.88;4.63;;;;;;;20.83;39.10;152514.97;5118836;28;20027;-65
2023/04/27 08:47:53;;;;;;;8.52;4.55;;;;;;;20.98;39.15;152552.47;5100712;28;20046;-64
2023/04/27 08:50:18;;;;;;;8.52;4.45;;;;;;;21.29;39.62;152631.28;5119762;28;20051;-64
2023/04/27 08:52:47;;;;;;;5.38;3.78;;;;;;;21.49;40.56;152681.69;5121402;28;20042;-65
2023/04/27 08:55:13;;;;;;;7.32;4.20;;;;;;;21.19;37.72;152605.41;5121095;28;20039;-65
2023/04/27 08:57:39;;;;;;;9.02;5.13;;;;;;;21.55;39.59;152695.97;5119365;28;20035;-65
2023/04/27 09:00:12;;;;;;;6.40;4.10;;;;;;;21.55;37.79;152697.25;5116606;28;20024;-65
2023/04/27 09:02:48;;;;;;;7.95;4.93;;;;;;;21.78;37.23;152752.84;5112506;28;20047;-65
2023/04/27 09:05:22;;;;;;;10.60;5.18;;;;;;;21.63;37.96;152715.34;5125600;28;20106;-65
2023/04/27 09:08:04;;;;;;;9.70;5.15;;;;;;;21.82;39.07;152764.47;5124410;28;20046;-66
2023/04/27 09:10:30;;;;;;;;;;;;;;;21.86;39.36;152773.50;5126603;28;20050;-66
2023/04/27 09:12:59;;;;;;;8.20;5.22;;;;;;;21.82;38.46;152763.16;5125027;28;19916;-63
2023/04/27 09:15:27;;;;;;;5.90;5.25;;;;;;;21.78;39.27;152752.84;5123437;28;20066;-66
2023/04/27 09:17:56;;;;;;;8.48;5.97;;;;;;;21.87;38.32;152777.38;5125570;28;20090;-65
2023/04/27 09:20:22;;;;;;;7.93;4.82;;;;;;;22.05;38.45;152822.63;5123126;28;20020;-65
2023/04/27 09:22:54;;;;;;;12.35;6.28;;;;;;;22.15;38.66;152847.22;5126033;28;20023;-64
2023/04/27 09:25:32;;;;;;;8.48;5.82;;;;;;;22.23;39.32;152867.91;5125565;28;20044;-65
2023/04/27 09:27:59;;;;;;;12.85;5.90;;;;;;;21.77;36.62;152751.53;5125572;28;20204;-65
2023/04/27 09:30:28;;;;;;;9.80;6.05;;;;;;;21.96;38.62;152798.06;5125973;28;20019;-65
2023/04/27 09:33:02;;;;;;;8.00;6.35;;;;;;;21.93;38.51;152791.59;5117607;28;20028;-66
2023/04/27 09:35:31;;;;;;;9.68;6.55;;;;;;;22.02;39.45;152813.59;5108436;28;20032;-66
2023/04/27 09:37:58;;;;;;;10.88;6.18;;;;;;;22.17;39.08;152852.34;5111427;28;20024;-65
2023/04/27 09:40:26;;;;;;;10.80;6.70;;;;;;;22.03;39.82;152816.16;5105342;28;20085;-64
2023/04/27 09:42:54;;;;;;;16.48;7.07;;;;;;;21.88;39.24;152778.69;5105101;28;20104;-65
2023/04/27 09:45:20;;;;;;;11.65;7.40;;;;;;;21.68;38.65;152729.56;5116947;28;20023;-66
2023/04/27 09:47:46;;;;;;;11.00;6.70;;;;;;;21.76;39.52;152747.66;5118469;28;20024;-66
2023/04/27 09:50:12;;;;;;;11.73;6.60;;;;;;;21.86;40.12;152774.81;5105125;28;20261;-66
2023/04/27 09:52:38;;;;;;;12.90;5.90;;;;;;;21.43;39.18;152664.88;5105353;28;20328;-66
2023/04/27 09:55:08;;;;;;;8.27;6.13;;;;;;;21.45;39.12;152671.34;5112510;28;20060;-67
2023/04/27 09:58:05;;;;;;;11.55;6.45;;;;;;;21.07;39.51;152575.72;5118943;28;20035;-67
2023/04/27 10:00:40;;;;;;;6.85;5.50;;;;;;;20.87;39.97;152525.31;5112091;28;20040;-65
2023/04/27 10:03:37;;;;;;;12.07;6.05;;;;;;;21.47;39.62;152675.22;5120804;28;20015;-66
2023/04/27 10:06:18;;;;;;;7.47;4.75;;;;;;;21.24;36.62;152618.34;5106492;28;20306;-65
2023/04/27 10:08:44;;;;;;;11.85;5.03;;;;;;;21.13;37.96;152589.91;5123822;28;20024;-67
2023/04/27 10:11:15;;;;;;;9.13;5.00;;;;;;;21.38;38.98;152653.25;5123219;28;20038;-65
2023/04/27 10:13:51;;;;;;;9.43;5.45;;;;;;;21.28;39.10;152628.69;5124660;28;20015;-65
2023/04/27 10:16:18;;;;;;;7.63;6.00;;;;;;;21.19;39.69;152606.72;5123474;28;20311;-66
2023/04/27 10:18:54;;;;;;;7.68;5.63;;;;;;;21.35;39.54;152645.50;5120037;28;20035;-66
2023/04/27 10:21:20;;;;;;;11.80;5.80;;;;;;;21.35;40.79;152646.78;5124212;28;20035;-65
2023/04/27 10:23:49;;;;;;;8.35;5.55;;;;;;;21.36;40.98;152648.06;5121641;28;20034;-66
2023/04/27 10:26:26;;;;;;;7.78;5.80;;;;;;;21.58;41.15;152703.72;5123836;28;20216;-65
2023/04/27 10:29:09;;;;;;;11.02;5.50;;;;;;;21.91;41.12;152785.16;5122378;28;20461;-66
2023/04/27 10:31:34;;;;;;;10.23;5.65;;;;;;;21.92;38.84;152789.03;5124236;28;20031;-65
2023/04/27 10:34:10;;;;;;;8.98;7.22;;;;;;;21.97;37.75;152800.66;5123992;28;20035;-67
2023/04/27 10:36:38;;;;;;;6.35;5.30;;;;;;;21.85;36.60;152772.22;5123967;28;20031;-65
2023/04/27 10:39:33;;;;;;;9.13;5.00;;;;;;;21.88;35.72;152779.97;5124553;28;20319;-64
2023/04/27 10:41:58;;;;;;;8.55;3.97;;;;;;;21.96;36.40;152799.38;5116055;28;20450;-66
2023/04/27 10:44:30;;;;;;;44.47;28.67;;;;;;;21.80;35.28;152758.00;5112100;28;20043;-67
2023/04/27 10:47:00;;;;;;;11.65;4.28;;;;;;;22.04;36.17;152818.75;5123685;28;20045;-67
2023/04/27 10:49:30;;;;;;;12.77;4.40;;;;;;;21.96;36.28;152798.06;5123499;28;20030;-67
2023/04/27 10:52:03;;;;;;;8.73;4.70;;;;;;;21.80;36.32;152758.00;5123754;28;20105;-66
2023/04/27 10:54:30;;;;;;;6.25;4.97;;;;;;;21.85;37.08;152770.94;5121289;28;20046;-67
2023/04/27 10:57:04;;;;;;;5.55;4.45;;;;;;;21.91;36.38;152785.16;5121106;28;20027;-67
2023/04/27 10:59:30;;;;;;;7.38;4.75;;;;;;;21.51;37.54;152685.56;5098113;28;20372;-67
2023/04/27 11:01:55;;;;;;;6.78;4.97;;;;;;;21.52;38.60;152689.50;5118041;28;20092;-67
2023/04/27 11:04:21;;;;;;;6.95;5.13;;;;;;;21.89;39.35;152782.56;5123382;28;20241;-67
2023/04/27 11:06:46;;;;;;;7.85;5.20;;;;;;;21.92;38.00;152787.72;5118176;28;20047;-67
2023/04/27 11:09:13;;;;;;;8.90;5.25;;;;;;;21.91;38.18;152786.44;5108114;28;20040;-65
2023/04/27 11:11:43;;;;;;;5.60;4.80;;;;;;;21.70;38.02;152733.44;5110486;28;20054;-66
2023/04/27 11:14:09;;;;;;;5.32;4.82;;;;;;;21.72;37.14;152738.63;5104327;28;20028;-67
2023/04/27 11:16:34;;;;;;;5.75;4.30;;;;;;;21.23;37.33;152615.75;5123616;28;20495;-68
2023/04/27 11:19:05;;;;;;;5.90;4.47;;;;;;;21.22;38.68;152613.22;5106261;28;20054;-66